Time;durP1;ratioP1;P1;durP2;ratioP2;P2;SDS_P1;SDS_P2;PMS_P1;PMS_P2;Temp;Humidity;BMP_temperature;BMP_pressure;BME280_temperature;BME280_humidity;BME280_pressure;Samples;Min_cycle;Max_cycle;Signal;HPM_P1;HPM_P2
2023/04/09 00:00:15;;;;;;;19.47;15.27;;;7.60;99.90;;;;;;5073183;28;20252;-65
2023/04/09 00:02:41;;;;;;;22.17;15.90;;;7.60;99.90;;;;;;5074082;28;20202;-64
2023/04/09 00:05:07;;;;;;;17.10;15.00;;;7.60;99.90;;;;;;5073862;28;20205;-65
2023/04/09 00:07:33;;;;;;;24.60;16.03;;;7.50;99.90;;;;;;5073803;28;20202;-65
2023/04/09 00:09:58;;;;;;;19.23;14.27;;;7.40;99.90;;;;;;5073448;28;20193;-65
2023/04/09 00:12:24;;;;;;;20.33;17.00;;;7.40;99.90;;;;;;5073674;28;20174;-65
2023/04/09 00:14:50;;;;;;;18.70;16.70;;;7.30;99.90;;;;;;5073936;28;20174;-65
2023/04/09 00:17:16;;;;;;;19.50;15.83;;;7.30;99.90;;;;;;5072670;28;20606;-65
2023/04/09 00:19:42;;;;;;;20.57;15.30;;;7.20;99.90;;;;;;5073342;28;20548;-64
2023/04/09 00:22:07;;;;;;;19.30;14.70;;;7.10;99.90;;;;;;5073388;28;20182;-65
2023/04/09 00:24:33;;;;;;;23.80;16.87;;;7.10;99.90;;;;;;5073647;28;20174;-65
2023/04/09 00:26:58;;;;;;;19.83;14.87;;;7.00;99.90;;;;;;5073414;28;20217;-65
2023/04/09 00:29:24;;;;;;;19.50;14.23;;;6.90;99.90;;;;;;5073305;28;20173;-65
2023/04/09 00:31:50;;;;;;;20.90;14.97;;;6.90;99.90;;;;;;5073288;28;20632;-65
2023/04/09 00:34:15;;;;;;;20.27;15.27;;;6.80;99.90;;;;;;5071928;28;20174;-65
2023/04/09 00:36:41;;;;;;;20.77;14.77;;;6.80;99.90;;;;;;5073032;28;20555;-65
2023/04/09 00:39:07;;;;;;;23.53;14.77;;;6.70;99.90;;;;;;5073423;28;20170;-65
2023/04/09 00:41:32;;;;;;;21.00;15.57;;;6.70;99.90;;;;;;5072917;28;20895;-64
2023/04/09 00:43:58;;;;;;;23.20;15.63;;;6.60;99.90;;;;;;5072251;28;20178;-64
2023/04/09 00:46:23;;;;;;;24.13;16.83;;;6.60;99.90;;;;;;5071724;28;20197;-65
2023/04/09 00:48:49;;;;;;;20.47;15.47;;;6.60;99.90;;;;;;5072020;28;20170;-65
2023/04/09 00:51:15;;;;;;;19.47;15.10;;;6.50;99.90;;;;;;5071491;28;20713;-64
2023/04/09 00:53:42;;;;;;;20.77;15.40;;;6.50;99.90;;;;;;5072073;28;20167;-64
2023/04/09 00:56:10;;;;;;;24.67;18.20;;;6.50;99.90;;;;;;5072015;28;20197;-64
2023/04/09 00:58:36;;;;;;;22.03;15.50;;;6.40;99.90;;;;;;5072691;28;20166;-65
2023/04/09 01:01:01;;;;;;;19.43;15.57;;;6.40;99.90;;;;;;5072022;28;20174;-64
2023/04/09 01:03:27;;;;;;;23.00;16.23;;;6.30;99.90;;;;;;5072873;28;20185;-64
2023/04/09 01:06:38;;;;;;;19.20;15.80;;;6.30;99.90;;;;;;5072494;28;20213;-65
2023/04/09 01:09:42;;;;;;;19.00;14.63;;;6.20;99.90;;;;;;5072791;28;20272;-65
2023/04/09 01:12:24;;;;;;;20.13;14.97;;;6.10;99.90;;;;;;5070678;28;20674;-65
2023/04/09 01:15:05;;;;;;;18.47;14.93;;;6.00;99.90;;;;;;5072284;28;20308;-65
2023/04/09 01:17:54;;;;;;;21.43;14.97;;;5.90;99.90;;;;;;5072354;28;20228;-65
2023/04/09 01:20:39;;;;;;;19.57;14.57;;;5.80;99.90;;;;;;5050207;28;20668;-65
2023/04/09 01:23:42;;;;;;;18.50;15.63;;;5.80;99.90;;;;;;5072406;28;20181;-65
2023/04/09 01:26:45;;;;;;;18.90;15.60;;;5.80;99.90;;;;;;5071830;28;20536;-65
2023/04/09 01:29:11;;;;;;;17.00;14.90;;;5.70;99.90;;;;;;5051043;28;20162;-65
2023/04/09 01:31:38;;;;;;;19.77;15.13;;;5.70;99.90;;;;;;5052470;28;20244;-65
2023/04/09 01:34:07;;;;;;;19.43;16.43;;;5.80;99.90;;;;;;5050830;28;20229;-65
2023/04/09 01:36:34;;;;;;;22.83;16.57;;;5.80;99.90;;;;;;5064399;28;20198;-65
2023/04/09 01:39:01;;;;;;;21.50;17.53;;;5.80;99.90;;;;;;5072391;28;20170;-64
2023/04/09 01:41:27;;;;;;;26.60;17.60;;;5.90;99.90;;;;;;5071867;28;20185;-64
2023/04/09 01:43:52;;;;;;;21.20;17.80;;;6.00;99.90;;;;;;5072132;28;20186;-65
2023/04/09 01:46:22;;;;;;;25.37;17.00;;;6.10;99.90;;;;;;5071897;28;20284;-65
2023/04/09 01:48:48;;;;;;;23.93;16.33;;;6.20;99.90;;;;;;5072080;28;20174;-65
2023/04/09 01:51:14;;;;;;;23.13;17.37;;;6.30;99.90;;;;;;5071546;28;20174;-65
2023/04/09 01:53:40;;;;;;;22.93;17.57;;;6.40;99.90;;;;;;5072163;28;20636;-66
2023/04/09 01:56:07;;;;;;;28.20;18.40;;;6.40;99.90;;;;;;5071574;28;20254;-65
2023/04/09 01:58:35;;;;;;;25.00;16.70;;;6.40;99.90;;;;;;5071566;28;20173;-64
2023/04/09 02:01:21;;;;;;;29.33;17.47;;;6.40;99.90;;;;;;5070033;28;20193;-65
2023/04/09 02:03:55;;;;;;;20.37;15.70;;;6.50;99.90;;;;;;5071411;28;20190;-65
2023/04/09 02:06:35;;;;;;;19.87;15.20;;;6.40;99.90;;;;;;5071868;28;20186;-65
2023/04/09 02:09:06;;;;;;;18.30;16.43;;;6.40;99.90;;;;;;5071776;28;20186;-65
2023/04/09 02:11:33;;;;;;;22.07;17.27;;;6.40;99.90;;;;;;5071765;28;20170;-65
2023/04/09 02:14:00;;;;;;;19.37;16.70;;;6.40;99.90;;;;;;5071672;28;20170;-64
2023/04/09 02:16:26;;;;;;;23.67;16.93;;;6.40;99.90;;;;;;5071445;28;20194;-65
2023/04/09 02:18:53;;;;;;;24.30;16.23;;;6.40;99.90;;;;;;5071504;28;20174;-65
2023/04/09 02:21:19;;;;;;;21.23;17.17;;;6.50;99.90;;;;;;5071311;28;20198;-65
2023/04/09 02:23:45;;;;;;;23.87;15.97;;;6.40;99.90;;;;;;5069924;28;20189;-65
2023/04/09 02:26:10;;;;;;;24.03;16.80;;;6.40;99.90;;;;;;5071291;28;20201;-65
2023/04/09 02:28:36;;;;;;;27.70;16.97;;;6.40;99.90;;;;;;5070035;28;20197;-65
2023/04/09 02:31:02;;;;;;;17.73;15.30;;;6.40;99.90;;;;;;5071034;28;20178;-65
2023/04/09 02:33:28;;;;;;;25.17;16.03;;;6.40;99.90;;;;;;5071434;28;20681;-65
2023/04/09 02:35:53;;;;;;;21.47;15.10;;;6.40;99.90;;;;;;5071128;28;20272;-65
2023/04/09 02:38:19;;;;;;;21.87;17.30;;;6.30;99.90;;;;;;5071309;28;20255;-65
2023/04/09 02:40:45;;;;;;;22.83;16.10;;;6.20;99.90;;;;;;5070456;28;20196;-65
2023/04/09 02:43:10;;;;;;;23.60;17.93;;;6.10;99.90;;;;;;5071470;28;20696;-65
2023/04/09 02:45:36;;;;;;;20.60;15.97;;;6.10;99.90;;;;;;5070940;28;20550;-65
2023/04/09 02:48:02;;;;;;;18.97;15.53;;;6.00;99.90;;;;;;5071236;28;20578;-65
2023/04/09 02:50:27;;;;;;;18.43;15.80;;;6.00;99.90;;;;;;5070677;28;20205;-65
2023/04/09 02:52:53;;;;;;;18.43;14.97;;;5.90;99.90;;;;;;5070987;28;20178;-65
2023/04/09 02:55:19;;;;;;;24.53;16.77;;;5.80;99.90;;;;;;5071400;28;20200;-65
2023/04/09 02:57:45;;;;;;;20.93;15.80;;;5.70;99.90;;;;;;5070892;28;20224;-65
2023/04/09 03:00:11;;;;;;;19.70;16.03;;;5.60;99.90;;;;;;5069322;28;20189;-65
2023/04/09 03:02:37;;;;;;;23.63;16.33;;;5.60;99.90;;;;;;5070971;28;20248;-65
2023/04/09 03:05:03;;;;;;;20.53;15.37;;;5.50;99.90;;;;;;5071202;28;20178;-65
2023/04/09 03:07:28;;;;;;;23.73;16.90;;;5.40;99.90;;;;;;5070693;28;20201;-65
2023/04/09 03:09:54;;;;;;;21.63;15.70;;;5.30;99.90;;;;;;5070437;28;20201;-65
2023/04/09 03:12:19;;;;;;;22.13;16.83;;;5.20;99.90;;;;;;5069765;28;20181;-65
2023/04/09 03:14:45;;;;;;;19.47;15.93;;;5.10;99.90;;;;;;5070730;28;20182;-65
2023/04/09 03:17:10;;;;;;;22.03;15.27;;;5.10;99.90;;;;;;5071545;28;20198;-64
2023/04/09 03:19:36;;;;;;;23.27;15.73;;;5.20;99.90;;;;;;5069980;28;20186;-65
2023/04/09 03:22:02;;;;;;;28.57;18.37;;;5.20;99.90;;;;;;5069793;28;20182;-64
2023/04/09 03:24:27;;;;;;;21.20;15.20;;;5.10;99.90;;;;;;5070842;28;20186;-65
2023/04/09 03:26:53;;;;;;;26.90;17.07;;;5.20;99.90;;;;;;5070900;28;20202;-65
2023/04/09 03:29:18;;;;;;;22.63;15.90;;;5.10;99.90;;;;;;5070012;28;20189;-64
2023/04/09 03:31:44;;;;;;;20.27;16.23;;;5.10;99.90;;;;;;5070700;28;20535;-65
2023/04/09 03:34:10;;;;;;;20.20;14.40;;;5.00;99.90;;;;;;5070386;28;20174;-65
2023/04/09 03:36:35;;;;;;;20.33;15.23;;;5.00;99.90;;;;;;5071129;28;20292;-64
2023/04/09 03:39:01;;;;;;;18.63;14.77;;;4.90;99.90;;;;;;5069318;28;20189;-65
2023/04/09 03:41:26;;;;;;;21.77;15.70;;;4.90;99.90;;;;;;5070604;28;20196;-64
2023/04/09 03:43:52;;;;;;;16.60;14.83;;;4.90;99.90;;;;;;5070817;28;20178;-64
2023/04/09 03:46:18;;;;;;;17.53;15.67;;;4.90;99.90;;;;;;5069478;28;20205;-65
2023/04/09 03:48:44;;;;;;;20.57;15.80;;;4.80;99.90;;;;;;5069329;28;20185;-64
2023/04/09 03:51:16;;;;;;;19.83;16.23;;;4.70;99.90;;;;;;5070681;28;20174;-64
2023/04/09 03:53:42;;;;;;;16.83;14.27;;;4.60;99.90;;;;;;5073371;28;20182;-65
2023/04/09 03:56:09;;;;;;;23.60;15.73;;;4.50;99.90;;;;;;5074480;28;20194;-64
2023/04/09 03:58:34;;;;;;;24.60;16.17;;;4.50;99.90;;;;;;5073881;28;20178;-64
2023/04/09 04:01:00;;;;;;;20.60;14.80;;;4.40;99.90;;;;;;5073948;28;20265;-65
2023/04/09 04:03:26;;;;;;;16.53;13.97;;;4.40;99.90;;;;;;5072571;28;20181;-64
2023/04/09 04:05:52;;;;;;;21.33;15.50;;;4.40;99.90;;;;;;5074109;28;20198;-65
2023/04/09 04:08:18;;;;;;;18.37;14.63;;;4.40;99.90;;;;;;5073689;28;20206;-65
2023/04/09 04:10:43;;;;;;;19.70;15.27;;;4.40;99.90;;;;;;5073423;28;20223;-65
2023/04/09 04:13:09;;;;;;;18.17;14.40;;;4.30;99.90;;;;;;5073692;28;20535;-66
2023/04/09 04:15:41;;;;;;;24.40;16.37;;;4.30;99.90;;;;;;5073843;28;20174;-65
2023/04/09 04:18:07;;;;;;;18.90;14.83;;;4.20;99.90;;;;;;5073494;28;20174;-65
2023/04/09 04:20:33;;;;;;;19.70;15.50;;;4.20;99.90;;;;;;5073345;28;20227;-64
2023/04/09 04:22:59;;;;;;;18.47;15.63;;;4.10;99.90;;;;;;5074093;28;20541;-65
2023/04/09 04:25:25;;;;;;;23.13;17.17;;;4.10;99.90;;;;;;5073784;28;20174;-65
2023/04/09 04:27:50;;;;;;;19.53;16.07;;;4.00;99.90;;;;;;5073216;28;20721;-64
2023/04/09 04:30:16;;;;;;;22.20;17.17;;;4.00;99.90;;;;;;5073203;28;20185;-64
2023/04/09 04:32:41;;;;;;;17.47;15.40;;;4.00;99.90;;;;;;5073280;28;20217;-65
2023/04/09 04:35:07;;;;;;;31.97;17.47;;;4.10;99.90;;;;;;5072317;28;20174;-64
2023/04/09 04:37:33;;;;;;;18.77;15.73;;;4.00;99.90;;;;;;5073015;28;20202;-65
2023/04/09 04:40:04;;;;;;;20.47;15.30;;;4.00;99.90;;;;;;5073188;28;20512;-64
2023/04/09 04:42:29;;;;;;;25.10;18.27;;;4.00;99.90;;;;;;5072921;28;20197;-64
2023/04/09 04:44:55;;;;;;;22.83;15.63;;;4.00;99.90;;;;;;5073385;28;20178;-64
2023/04/09 04:47:21;;;;;;;19.37;16.30;;;4.00;99.90;;;;;;5072893;28;20206;-65
2023/04/09 04:49:46;;;;;;;20.90;15.20;;;4.00;99.90;;;;;;5072870;28;20200;-66
2023/04/09 04:52:12;;;;;;;19.67;15.37;;;3.90;99.90;;;;;;5073039;28;20171;-64
2023/04/09 04:54:37;;;;;;;17.93;16.27;;;3.90;99.90;;;;;;5072925;28;20244;-65
2023/04/09 04:57:03;;;;;;;18.93;16.77;;;3.90;99.90;;;;;;5072958;28;20201;-64
2023/04/09 04:59:29;;;;;;;20.23;15.87;;;3.90;99.90;;;;;;5072717;28;20544;-65
2023/04/09 05:01:54;;;;;;;22.83;18.37;;;3.90;99.90;;;;;;5072853;28;20193;-65
2023/04/09 05:04:20;;;;;;;22.23;17.07;;;3.90;99.90;;;;;;5072282;28;20233;-65
2023/04/09 05:06:45;;;;;;;18.73;16.50;;;3.90;99.90;;;;;;5072406;28;20247;-64
2023/04/09 05:09:11;;;;;;;18.87;16.97;;;3.90;99.90;;;;;;5072509;28;20182;-65
2023/04/09 05:11:37;;;;;;;25.53;18.20;;;3.90;99.90;;;;;;5072520;28;20181;-65
2023/04/09 05:14:03;;;;;;;22.17;18.03;;;3.90;99.90;;;;;;5072510;28;20224;-65
2023/04/09 05:16:29;;;;;;;22.07;18.30;;;4.00;99.90;;;;;;5072043;28;20234;-64
2023/04/09 05:18:55;;;;;;;21.97;17.80;;;4.00;99.90;;;;;;5072682;28;20202;-65
2023/04/09 05:21:20;;;;;;;19.07;16.97;;;4.00;99.90;;;;;;5072085;28;20178;-65
2023/04/09 05:23:46;;;;;;;22.50;16.70;;;4.00;99.90;;;;;;5072238;28;20186;-64
2023/04/09 05:26:12;;;;;;;19.37;16.07;;;4.00;99.90;;;;;;5072374;28;20194;-64
2023/04/09 05:28:37;;;;;;;19.37;15.83;;;4.10;99.90;;;;;;5072005;28;20213;-65
2023/04/09 05:31:03;;;;;;;19.10;17.07;;;4.10;99.90;;;;;;5071153;28;20181;-64
2023/04/09 05:33:29;;;;;;;21.53;17.33;;;4.10;99.90;;;;;;5071917;28;20632;-65
2023/04/09 05:35:55;;;;;;;22.50;15.77;;;4.20;99.90;;;;;;5072012;28;20240;-65
2023/04/09 05:38:20;;;;;;;18.37;14.77;;;4.30;99.90;;;;;;5072075;28;20182;-64
2023/04/09 05:40:47;;;;;;;19.23;15.67;;;4.30;99.90;;;;;;5071809;28;20253;-64
2023/04/09 05:43:13;;;;;;;22.60;15.63;;;4.40;99.90;;;;;;5071860;28;20174;-64
2023/04/09 05:45:39;;;;;;;23.13;17.50;;;4.60;99.90;;;;;;5071946;28;20227;-64
2023/04/09 05:48:05;;;;;;;20.03;16.50;;;4.60;99.90;;;;;;5071885;28;20201;-64
2023/04/09 05:50:30;;;;;;;19.90;14.23;;;4.80;99.90;;;;;;5071478;28;20190;-64
2023/04/09 05:52:56;;;;;;;21.47;15.30;;;4.90;99.90;;;;;;5071592;28;20190;-65
2023/04/09 05:55:21;;;;;;;21.90;15.93;;;5.00;99.90;;;;;;5072061;28;20261;-65
2023/04/09 05:57:47;;;;;;;22.17;15.50;;;5.10;99.90;;;;;;5071464;28;20546;-65
2023/04/09 06:00:14;;;;;;;26.27;17.27;;;5.20;99.90;;;;;;5071348;28;20203;-64
2023/04/09 06:02:40;;;;;;;28.57;17.23;;;5.40;99.90;;;;;;5071423;28;20178;-65
2023/04/09 06:05:05;;;;;;;19.23;14.87;;;5.40;99.90;;;;;;5071937;28;20253;-64
2023/04/09 06:07:31;;;;;;;18.07;14.80;;;5.40;99.90;;;;;;5071259;28;20236;-65
2023/04/09 06:09:57;;;;;;;18.13;15.97;;;5.50;99.90;;;;;;5065123;28;20225;-65
2023/04/09 06:12:22;;;;;;;21.53;15.87;;;5.60;99.90;;;;;;5051518;28;20170;-65
2023/04/09 06:14:48;;;;;;;27.30;15.57;;;5.70;99.90;;;;;;5056052;28;20644;-64
2023/04/09 06:17:14;;;;;;;19.43;15.60;;;5.90;99.90;;;;;;5071500;28;20194;-64
2023/04/09 06:19:39;;;;;;;22.27;17.30;;;6.10;99.90;;;;;;5066463;28;20228;-65
2023/04/09 06:22:08;;;;;;;19.47;15.27;;;6.30;99.90;;;;;;5051515;28;20246;-65
2023/04/09 06:24:33;;;;;;;23.13;16.57;;;6.70;99.90;;;;;;5057723;28;20177;-65
2023/04/09 06:26:59;;;;;;;21.13;14.40;;;7.10;99.90;;;;;;5071437;28;20205;-65
2023/04/09 06:29:25;;;;;;;23.50;17.10;;;7.40;99.90;;;;;;5071176;28;20181;-64
2023/04/09 06:31:50;;;;;;;17.63;14.63;;;7.70;99.90;;;;;;5053226;28;20244;-65
2023/04/09 06:34:16;;;;;;;20.87;15.43;;;8.10;99.90;;;;;;5051297;28;20575;-65
2023/04/09 06:36:42;;;;;;;15.93;13.17;;;8.40;99.90;;;;;;5051997;28;20209;-65
2023/04/09 06:39:08;;;;;;;19.63;13.93;;;8.60;99.90;;;;;;5070390;28;20227;-65
2023/04/09 06:41:34;;;;;;;19.00;14.27;;;9.00;99.90;;;;;;5069384;28;20174;-65
2023/04/09 06:44:00;;;;;;;20.97;14.70;;;9.40;99.90;;;;;;5068640;28;20185;-66
2023/04/09 06:46:26;;;;;;;15.63;13.27;;;9.90;99.90;;;;;;5069860;28;20248;-65
2023/04/09 06:48:52;;;;;;;19.47;12.90;;;10.30;99.90;;;;;;5070317;28;20690;-65
2023/04/09 06:51:17;;;;;;;16.50;13.03;;;10.70;99.90;;;;;;5070859;28;20459;-64
2023/04/09 06:53:43;;;;;;;19.10;13.53;;;11.10;99.90;;;;;;5070276;28;20182;-64
2023/04/09 06:56:09;;;;;;;13.70;11.77;;;11.40;99.90;;;;;;5070617;28;20697;-65
2023/04/09 06:58:35;;;;;;;14.90;11.57;;;11.70;99.90;;;;;;5068735;28;20562;-65
2023/04/09 07:01:00;;;;;;;13.33;11.67;;;11.90;99.90;;;;;;5070437;28;20635;-65
2023/04/09 07:03:26;;;;;;;13.67;10.70;;;12.00;99.90;;;;;;5070842;28;20203;-66
2023/04/09 07:05:53;;;;;;;12.10;10.07;;;12.10;99.90;;;;;;5070728;28;20564;-65
2023/04/09 07:08:19;;;;;;;11.20;9.27;;;12.20;57.40;;;;;;5070629;28;20209;-65
2023/04/09 07:10:46;;;;;;;13.77;9.90;;;12.20;1.00;;;;;;5070254;28;20588;-66
2023/04/09 07:13:12;;;;;;;12.10;8.67;;;12.30;1.00;;;;;;5070486;28;20166;-64
2023/04/09 07:15:37;;;;;;;12.13;10.37;;;12.50;1.00;;;;;;5070785;28;20180;-65
2023/04/09 07:18:03;;;;;;;10.83;9.30;;;12.80;1.00;;;;;;5069684;28;20174;-64
2023/04/09 07:20:28;;;;;;;10.10;8.30;;;12.90;1.00;;;;;;5072784;28;20202;-64
2023/04/09 07:22:54;;;;;;;9.27;8.23;;;12.90;1.00;;;;;;5070632;28;20190;-64
2023/04/09 07:25:20;;;;;;;11.13;7.83;;;12.90;1.00;;;;;;5071161;28;20174;-64
2023/04/09 07:27:46;;;;;;;9.13;7.70;;;12.90;1.00;;;;;;5072313;28;20220;-66
2023/04/09 07:30:11;;;;;;;7.93;7.13;;;12.90;1.00;;;;;;5067018;28;20166;-66
2023/04/09 07:32:37;;;;;;;9.33;8.03;;;13.00;1.00;;;;;;5054197;28;20220;-65
2023/04/09 07:35:05;;;;;;;8.00;7.20;;;13.00;1.00;;;;;;5067200;28;20240;-66
2023/04/09 07:37:31;;;;;;;8.77;7.67;;;13.40;1.00;;;;;;5073277;28;20281;-65
2023/04/09 07:39:57;;;;;;;10.00;7.70;;;13.60;1.00;;;;;;5076880;28;20663;-66
2023/04/09 07:42:23;;;;;;;7.63;6.80;;;13.90;1.00;;;;;;5077020;28;20206;-66
2023/04/09 07:44:48;;;;;;;8.17;6.63;;;14.20;1.00;;;;;;5074102;28;20257;-66
2023/04/09 07:47:14;;;;;;;8.23;6.87;;;14.50;1.00;;;;;;5073693;28;20213;-66
2023/04/09 07:49:40;;;;;;;9.70;6.90;;;14.90;1.00;;;;;;5073580;28;20528;-64
2023/04/09 07:52:06;;;;;;;8.27;7.27;;;15.00;1.00;;;;;;5073118;28;20219;-65
2023/04/09 07:54:32;;;;;;;10.50;6.80;;;15.00;1.00;;;;;;5073829;28;20622;-65
2023/04/09 07:56:58;;;;;;;7.83;6.57;;;15.10;1.00;;;;;;5073761;28;20190;-65
2023/04/09 07:59:24;;;;;;;6.73;5.67;;;15.40;1.00;;;;;;5073492;28;20232;-64
2023/04/09 08:01:50;;;;;;;8.20;6.50;;;15.40;1.00;;;;;;5071559;28;20224;-65
2023/04/09 08:04:16;;;;;;;9.33;6.33;;;15.50;1.00;;;;;;5074121;28;20648;-66
2023/04/09 08:06:45;;;;;;;7.90;6.93;;;15.80;1.00;;;;;;5058813;28;20625;-64
2023/04/09 08:09:11;;;;;;;7.20;6.50;;;15.80;1.00;;;;;;5052407;28;20197;-65
2023/04/09 08:11:36;;;;;;;8.07;6.10;;;15.90;1.00;;;;;;5067529;28;20269;-66
2023/04/09 08:14:03;;;;;;;7.30;5.93;;;16.10;1.00;;;;;;5073927;28;20162;-65
2023/04/09 08:16:29;;;;;;;7.23;6.37;;;16.20;1.00;;;;;;5073196;28;20682;-65
2023/04/09 08:18:55;;;;;;;6.53;5.93;;;16.30;1.00;;;;;;5073698;28;20177;-65
2023/04/09 08:21:22;;;;;;;6.53;5.93;;;16.50;1.00;;;;;;5072987;28;20208;-65
2023/04/09 08:23:48;;;;;;;6.63;6.03;;;16.60;1.00;;;;;;5073588;28;20185;-66
2023/04/09 08:26:14;;;;;;;7.63;6.13;;;16.80;1.00;;;;;;5072205;28;20754;-66
2023/04/09 08:28:40;;;;;;;7.27;6.47;;;16.80;1.00;;;;;;5073139;28;20206;-64
2023/04/09 08:31:08;;;;;;;7.13;5.70;;;16.90;1.00;;;;;;5073015;28;20174;-64
2023/04/09 08:33:34;;;;;;;6.17;5.30;;;16.90;1.00;;;;;;5071343;28;20715;-65
2023/04/09 08:36:00;;;;;;;5.57;5.07;;;17.00;1.00;;;;;;5073403;28;20182;-64
2023/04/09 08:38:26;;;;;;;6.43;5.80;;;17.10;1.00;;;;;;5066213;28;20178;-66
2023/04/09 08:40:51;;;;;;;6.97;6.37;;;17.30;1.00;;;;;;5063754;28;20170;-65
2023/04/09 08:43:21;;;;;;;7.80;6.23;;;17.50;1.00;;;;;;5073225;28;20178;-64
2023/04/09 08:45:47;;;;;;;7.67;5.63;;;17.70;1.00;;;;;;5071582;28;20245;-66
2023/04/09 08:48:13;;;;;;;6.37;5.53;;;17.70;1.00;;;;;;5073099;28;20587;-66
2023/04/09 08:50:39;;;;;;;6.70;5.97;;;17.40;1.00;;;;;;5072623;28;21112;-66
2023/04/09 08:53:06;;;;;;;6.13;5.53;;;17.30;1.00;;;;;;5073204;28;20647;-65
2023/04/09 08:55:36;;;;;;;5.53;5.13;;;17.40;1.00;;;;;;5072707;28;20261;-65
2023/04/09 08:58:09;;;;;;;5.13;4.63;;;17.60;1.00;;;;;;5073270;28;20266;-65
2023/04/09 09:00:35;;;;;;;6.90;5.10;;;17.90;1.00;;;;;;5072096;28;20320;-65
2023/04/09 09:03:09;;;;;;;7.20;5.60;;;18.10;1.00;;;;;;5073052;28;20186;-65
2023/04/09 09:05:40;;;;;;;7.47;4.53;;;18.30;1.00;;;;;;5070736;28;20191;-65
2023/04/09 09:08:11;;;;;;;5.47;5.03;;;18.50;1.00;;;;;;5072558;28;20242;-66
2023/04/09 09:10:44;;;;;;;5.78;5.18;;;19.10;1.00;;;;;;5072124;28;20674;-65
2023/04/09 09:13:17;;;;;;;5.90;5.40;;;19.30;99.90;;;;;;5072746;28;20236;-66
2023/04/09 09:15:43;;;;;;;5.82;5.22;;;19.30;99.90;;;;;;5072221;28;20174;-65
2023/04/09 09:18:09;;;;;;;5.23;4.83;;;19.40;99.90;;;;;;5072690;28;20548;-65
2023/04/09 09:20:34;;;;;;;4.78;4.38;;;19.40;99.90;;;;;;5071688;28;20178;-65
2023/04/09 09:23:01;;;;;;;5.63;5.07;;;19.20;99.90;;;;;;5072477;28;20182;-65
2023/04/09 09:25:27;;;;;;;5.18;4.78;;;19.10;99.90;;;;;;5066219;28;20193;-66
2023/04/09 09:27:54;;;;;;;5.18;4.68;;;18.90;99.90;;;;;;5072094;28;20198;-66
2023/04/09 09:30:24;;;;;;;5.13;4.73;;;18.90;99.90;;;;;;5072231;28;20190;-65
2023/04/09 09:33:10;;;;;;;5.23;4.83;;;18.80;99.90;;;;;;5055587;28;20257;-65
2023/04/09 09:35:47;;;;;;;5.35;4.82;;;18.90;99.90;;;;;;5061578;28;20197;-65
2023/04/09 09:38:14;;;;;;;5.88;4.50;;;19.10;99.90;;;;;;5070882;28;20261;-65
2023/04/09 09:40:40;;;;;;;5.17;4.70;;;19.30;99.90;;;;;;5071181;28;20174;-64
2023/04/09 09:43:06;;;;;;;5.43;4.95;;;19.00;99.90;;;;;;5070683;28;20185;-65
2023/04/09 09:45:32;;;;;;;4.07;3.70;;;18.80;99.90;;;;;;5071688;28;20240;-66
2023/04/09 09:47:58;;;;;;;5.57;5.07;;;18.80;99.90;;;;;;5071881;28;20648;-65
2023/04/09 09:50:25;;;;;;;5.77;5.17;;;18.80;99.90;;;;;;5070534;28;20184;-65
2023/04/09 09:52:56;;;;;;;6.00;4.85;;;18.80;99.90;;;;;;5071791;28;20170;-65
2023/04/09 09:55:23;;;;;;;5.30;4.80;;;18.70;99.90;;;;;;5071821;28;20654;-64
2023/04/09 09:57:52;;;;;;;5.03;4.37;;;18.80;99.90;;;;;;5071349;28;20237;-65
2023/04/09 10:00:24;;;;;;;5.10;4.60;;;18.80;99.90;;;;;;5071484;28;20174;-66
2023/04/09 10:03:23;;;;;;;4.77;4.37;;;18.60;99.90;;;;;;5071386;28;20186;-66
2023/04/09 10:05:49;;;;;;;5.30;4.80;;;18.70;99.90;;;;;;5062039;28;20284;-66
2023/04/09 10:08:15;;;;;;;5.20;4.80;;;19.00;99.90;;;;;;5061365;28;20241;-66
2023/04/09 10:10:42;;;;;;;6.95;5.15;;;19.10;99.90;;;;;;5070943;28;20221;-65
2023/04/09 10:13:20;;;;;;;6.33;5.20;;;19.40;99.90;;;;;;5071453;28;20178;-65
2023/04/09 10:15:46;;;;;;;4.95;4.55;;;19.20;99.90;;;;;;5071323;28;20181;-66
2023/04/09 10:18:13;;;;;;;6.13;5.37;;;19.10;99.90;;;;;;5071391;28;20312;-66
2023/04/09 10:20:47;;;;;;;5.43;4.93;;;19.00;99.90;;;;;;5070972;28;20204;-66
2023/04/09 10:23:23;;;;;;;5.90;5.35;;;19.20;99.90;;;;;;5070926;28;20374;-66
2023/04/09 10:25:49;;;;;;;5.93;5.33;;;19.30;99.90;;;;;;5071330;28;20198;-66
2023/04/09 10:28:17;;;;;;;5.30;4.83;;;19.30;99.90;;;;;;5071099;28;20201;-65
2023/04/09 10:30:43;;;;;;;5.90;4.53;;;19.30;99.90;;;;;;5070781;28;20624;-65
2023/04/09 10:33:13;;;;;;;6.78;5.07;;;19.30;99.90;;;;;;5068895;28;20178;-66
2023/04/09 10:35:39;;;;;;;7.03;5.33;;;19.40;99.90;;;;;;5071228;28;20663;-66
2023/04/09 10:38:08;;;;;;;6.07;5.57;;;19.20;99.90;;;;;;5070923;28;20208;-66
2023/04/09 10:40:50;;;;;;;5.87;5.17;;;19.20;99.90;;;;;;5070744;28;20202;-66
2023/04/09 10:43:21;;;;;;;5.57;5.07;;;19.20;99.90;;;;;;5070972;28;20170;-66
2023/04/09 10:45:52;;;;;;;5.32;4.90;;;19.50;99.90;;;;;;5071145;28;20170;-66
2023/04/09 10:48:19;;;;;;;5.80;5.13;;;19.70;99.90;;;;;;5070908;28;20202;-66
2023/04/09 10:50:45;;;;;;;6.47;5.63;;;19.70;99.90;;;;;;5070618;28;20174;-66
2023/04/09 10:53:24;;;;;;;5.33;4.83;;;19.80;99.90;;;;;;5070933;28;20185;-66
2023/04/09 10:55:52;;;;;;;7.67;5.43;;;20.10;99.90;;;;;;5071025;28;20328;-66
2023/04/09 10:58:18;;;;;;;5.27;4.57;;;20.00;99.90;;;;;;5070946;28;20264;-66
2023/04/09 11:00:46;;;;;;;5.90;5.35;;;19.80;99.90;;;;;;5070418;28;20632;-66
2023/04/09 11:03:29;;;;;;;5.37;4.97;;;19.50;99.90;;;;;;5074314;28;20556;-65
2023/04/09 11:05:57;;;;;;;6.72;4.78;;;19.60;99.90;;;;;;5073021;28;20220;-67
2023/04/09 11:08:22;;;;;;;5.07;4.67;;;19.50;99.90;;;;;;5074730;28;20210;-66
2023/04/09 11:10:48;;;;;;;5.57;5.07;;;19.50;99.90;;;;;;5074247;28;20217;-67
2023/04/09 11:13:16;;;;;;;5.50;5.00;;;19.30;99.90;;;;;;5074998;28;20182;-66
2023/04/09 11:15:42;;;;;;;5.30;4.90;;;19.30;99.90;;;;;;5074741;28;20624;-66
2023/04/09 11:18:12;;;;;;;5.33;4.93;;;19.00;99.90;;;;;;5074702;28;20178;-66
2023/04/09 11:20:39;;;;;;;5.20;4.70;;;18.60;99.90;;;;;;5074193;28;20182;-65
2023/04/09 11:23:05;;;;;;;5.23;4.63;;;18.50;99.90;;;;;;5073222;28;20269;-66
2023/04/09 11:25:32;;;;;;;6.07;4.73;;;18.50;99.90;;;;;;5074697;28;20606;-66
2023/04/09 11:27:58;;;;;;;5.87;5.30;;;18.80;99.90;;;;;;5074250;28;20567;-66
2023/04/09 11:30:25;;;;;;;5.67;5.23;;;18.90;99.90;;;;;;5074451;28;20174;-66
2023/04/09 11:32:51;;;;;;;5.70;5.20;;;18.60;99.90;;;;;;5072937;28;20591;-65
2023/04/09 11:35:21;;;;;;;6.13;5.53;;;18.30;99.90;;;;;;5074368;28;20201;-65
2023/04/09 11:37:48;;;;;;;5.77;5.23;;;17.80;99.90;;;;;;5071692;28;20268;-65
2023/04/09 11:40:15;;;;;;;5.80;5.20;;;17.60;99.90;;;;;;5074091;28;20190;-65
2023/04/09 11:42:42;;;;;;;5.13;4.73;;;18.00;99.90;;;;;;5073897;28;20548;-66
2023/04/09 11:45:11;;;;;;;7.90;5.10;;;18.40;99.90;;;;;;5074431;28;20268;-66
2023/04/09 11:47:40;;;;;;;4.53;4.13;;;18.50;99.90;;;;;;5073387;28;20217;-66
2023/04/09 11:50:07;;;;;;;5.23;4.83;;;19.00;99.90;;;;;;5056004;28;20701;-66
2023/04/09 11:52:34;;;;;;;5.30;4.80;;;19.30;99.90;;;;;;5072888;28;20555;-65
2023/04/09 11:55:04;;;;;;;6.10;5.53;;;19.50;99.90;;;;;;5073928;28;20170;-66
2023/04/09 11:57:39;;;;;;;6.53;5.90;;;19.80;99.90;;;;;;5074056;28;20302;-66
2023/04/09 12:00:15;;;;;;;6.10;5.30;;;19.80;99.90;;;;;;5073982;28;20177;-66
2023/04/09 12:02:44;;;;;;;6.03;5.30;;;19.70;99.90;;;;;;5073898;28;20189;-66
2023/04/09 12:05:12;;;;;;;5.67;5.07;;;19.40;99.90;;;;;;5074258;28;20185;-66
2023/04/09 12:07:38;;;;;;;6.57;5.83;;;19.10;99.90;;;;;;5073661;28;20210;-66
2023/04/09 12:10:06;;;;;;;5.23;4.73;;;19.10;99.90;;;;;;5073789;28;20243;-66
2023/04/09 12:12:39;;;;;;;5.50;5.03;;;19.40;99.90;;;;;;5073194;28;20185;-66
2023/04/09 12:15:32;;;;;;;5.80;5.30;;;19.60;99.90;;;;;;5072155;28;20182;-66
2023/04/09 12:17:58;;;;;;;5.70;5.20;;;19.50;99.90;;;;;;5072905;28;20273;-66
2023/04/09 12:20:42;;;;;;;5.60;5.10;;;19.40;99.90;;;;;;5073362;28;20237;-66
2023/04/09 12:23:09;;;;;;;8.23;5.80;;;19.40;99.90;;;;;;5074015;28;20265;-66
2023/04/09 12:25:44;;;;;;;5.63;5.13;;;19.50;99.90;;;;;;5073445;28;20179;-66
2023/04/09 12:28:17;;;;;;;7.03;5.50;;;19.30;99.90;;;;;;5073688;28;20201;-66
2023/04/09 12:30:43;;;;;;;5.87;5.37;;;19.50;99.90;;;;;;5072850;28;20274;-66
2023/04/09 12:33:09;;;;;;;7.10;5.70;;;19.50;99.90;;;;;;5073734;28;20169;-66
2023/04/09 12:35:36;;;;;;;6.70;5.07;;;19.50;99.90;;;;;;5071774;28;20327;-66
2023/04/09 12:38:03;;;;;;;5.90;5.40;;;19.50;99.90;;;;;;5073103;28;20170;-66
2023/04/09 12:40:30;;;;;;;5.77;5.27;;;19.70;99.90;;;;;;5072111;28;20182;-66
2023/04/09 12:42:55;;;;;;;4.63;4.30;;;19.60;99.90;;;;;;5072954;28;20208;-66
2023/04/09 12:45:21;;;;;;;5.33;4.93;;;19.50;99.90;;;;;;5072929;28;20182;-66